PWSweather.com
Personal Weather Stations
Station Observations
PICKERING
North Yorkshire, PickeringGB

North YorkshirePickeringGB

Lat: 54.2494, Lon: -0.7725

Elevation: 192

Station Type: Oregon Scientific WMR100

http://www.yorkshirewalker.co.uk/weather/

High Low Average
Temperature 54.5°F12.5°C 40.5°F4.7°C 48.2°F9.0°C
Dew Point 44.6°F7.0°C 30.2°F-1.0°C 39.3°F4.1°C
Winds 15.8 mph 25.4 kmh 2.1 mph 3.4 kmh 9.0 mph W14.5 kmh W
Wind Gusts 26.4 mph42.5 kmh 3.6 mph5.8 kmh 14.0 mph22.5 kmh
Humidity 79% 60% 71%
Pressure 29.65 in1004.1 mb 29.41 in995.9 mb -
Precipitation 0.00 in0.0 mm - -
Hour Temp Dew Point Humidity Winds Wind Gusts Pressure Precip Precip Rate Daily Precip Total
12:00 AM 50.4°F10.2°C 44.6°F7.0°C 79% 6.6 mph WSW10.6 kmh WSW 10.7 mph17.2 kmh 29.65 in1004.1 mb 0.00 in0.0 mm 0.00 in0.0 mm 0.00 in0.0 mm
12:05 AM 50.4°F10.2°C 44.6°F7.0°C 79% 5.3 mph WSW8.5 kmh WSW 8.1 mph13.0 kmh 29.62 in1003.0 mb 0.00 in0.0 mm 0.00 in0.0 mm 0.00 in0.0 mm
12:10 AM 50.4°F10.2°C 44.6°F7.0°C 79% 6.1 mph W9.8 kmh W 9.8 mph15.8 kmh 29.62 in1003.0 mb 0.00 in0.0 mm 0.00 in0.0 mm 0.00 in0.0 mm
12:15 AM 50.4°F10.2°C 44.6°F7.0°C 79% 7.4 mph W11.9 kmh W 10.7 mph17.2 kmh 29.62 in1003.0 mb 0.00 in0.0 mm 0.00 in0.0 mm 0.00 in0.0 mm
12:20 AM 50.4°F10.2°C 44.6°F7.0°C 79% 7.3 mph WSW11.7 kmh WSW 12.8 mph20.6 kmh 29.62 in1003.0 mb 0.00 in0.0 mm 0.00 in0.0 mm 0.00 in0.0 mm
12:25 AM 50.4°F10.2°C 44.6°F7.0°C 79% 7.7 mph WSW12.4 kmh WSW 12.8 mph20.6 kmh 29.62 in1003.0 mb 0.00 in0.0 mm 0.00 in0.0 mm 0.00 in0.0 mm
12:30 AM 50.4°F10.2°C 44.6°F7.0°C 79% 6.5 mph WSW10.5 kmh WSW 8.5 mph13.7 kmh 29.62 in1003.0 mb 0.00 in0.0 mm 0.00 in0.0 mm 0.00 in0.0 mm
12:35 AM 50.4°F10.2°C 44.6°F7.0°C 79% 6.1 mph WSW9.8 kmh WSW 8.7 mph14.0 kmh 29.62 in1003.0 mb 0.00 in0.0 mm 0.00 in0.0 mm 0.00 in0.0 mm
12:40 AM 50.4°F10.2°C 44.6°F7.0°C 79% 7.1 mph W11.4 kmh W 10.3 mph16.6 kmh 29.62 in1003.0 mb 0.00 in0.0 mm 0.00 in0.0 mm 0.00 in0.0 mm
12:45 AM 50.4°F10.2°C 44.6°F7.0°C 79% 8.7 mph W14.0 kmh W 10.3 mph16.6 kmh 29.62 in1003.0 mb 0.00 in0.0 mm 0.00 in0.0 mm 0.00 in0.0 mm
12:50 AM 50.4°F10.2°C 44.6°F7.0°C 79% 8.7 mph WSW14.0 kmh WSW 11.9 mph19.2 kmh 29.62 in1003.0 mb 0.00 in0.0 mm 0.00 in0.0 mm 0.00 in0.0 mm
12:55 AM 50.2°F10.1°C 44.6°F7.0°C 79% 7.9 mph WSW12.7 kmh WSW 11.9 mph19.2 kmh 29.62 in1003.0 mb 0.00 in0.0 mm 0.00 in0.0 mm 0.00 in0.0 mm
01:00 AM 50.2°F10.1°C 44.6°F7.0°C 79% 6.8 mph WSW10.9 kmh WSW 11.0 mph17.7 kmh 29.62 in1003.0 mb 0.00 in0.0 mm 0.00 in0.0 mm 0.00 in0.0 mm
01:05 AM 50.2°F10.1°C 44.6°F7.0°C 79% 7.2 mph WSW11.6 kmh WSW 10.3 mph16.6 kmh 29.62 in1003.0 mb 0.00 in0.0 mm 0.00 in0.0 mm 0.00 in0.0 mm
01:10 AM 50.2°F10.1°C 44.6°F7.0°C 79% 8.4 mph WSW13.5 kmh WSW 11.0 mph17.7 kmh 29.62 in1003.0 mb 0.00 in0.0 mm 0.00 in0.0 mm 0.00 in0.0 mm
01:15 AM 50.2°F10.1°C 44.6°F7.0°C 79% 7.2 mph WSW11.6 kmh WSW 11.0 mph17.7 kmh 29.62 in1003.0 mb 0.00 in0.0 mm 0.00 in0.0 mm 0.00 in0.0 mm
01:20 AM 50.0°F10.0°C 44.6°F7.0°C 79% 6.1 mph WSW9.8 kmh WSW 10.5 mph16.9 kmh 29.59 in1002.0 mb 0.00 in0.0 mm 0.00 in0.0 mm 0.00 in0.0 mm
01:25 AM 50.2°F10.1°C 44.6°F7.0°C 79% 7.1 mph WSW11.4 kmh WSW 10.1 mph16.3 kmh 29.59 in1002.0 mb 0.00 in0.0 mm 0.00 in0.0 mm 0.00 in0.0 mm
01:30 AM 50.2°F10.1°C 44.6°F7.0°C 79% 7.6 mph WSW12.2 kmh WSW 10.1 mph16.3 kmh 29.59 in1002.0 mb 0.00 in0.0 mm 0.00 in0.0 mm 0.00 in0.0 mm
01:35 AM 50.2°F10.1°C 44.6°F7.0°C 79% 8.2 mph WSW13.2 kmh WSW 13.2 mph21.2 kmh 29.59 in1002.0 mb 0.00 in0.0 mm 0.00 in0.0 mm 0.00 in0.0 mm
01:40 AM 50.2°F10.1°C 44.6°F7.0°C 79% 8.1 mph WSW13.0 kmh WSW 13.2 mph21.2 kmh 29.59 in1002.0 mb 0.00 in0.0 mm 0.00 in0.0 mm 0.00 in0.0 mm
01:45 AM 50.2°F10.1°C 44.6°F7.0°C 79% 7.9 mph WSW12.7 kmh WSW 13.2 mph21.2 kmh 29.59 in1002.0 mb 0.00 in0.0 mm 0.00 in0.0 mm 0.00 in0.0 mm
01:50 AM 50.4°F10.2°C 44.6°F7.0°C 78% 8.6 mph WSW13.8 kmh WSW 13.2 mph21.2 kmh 29.59 in1002.0 mb 0.00 in0.0 mm 0.00 in0.0 mm 0.00 in0.0 mm
01:55 AM 50.4°F10.2°C 44.6°F7.0°C 78% 9.5 mph WSW15.3 kmh WSW 14.3 mph23.0 kmh 29.59 in1002.0 mb 0.00 in0.0 mm 0.00 in0.0 mm 0.00 in0.0 mm
02:00 AM 50.4°F10.2°C 44.6°F7.0°C 78% 10.6 mph WSW17.1 kmh WSW 15.2 mph24.5 kmh 29.59 in1002.0 mb 0.00 in0.0 mm 0.00 in0.0 mm 0.00 in0.0 mm
02:05 AM 50.4°F10.2°C 44.6°F7.0°C 78% 11.8 mph WSW19.0 kmh WSW 15.4 mph24.8 kmh 29.59 in1002.0 mb 0.00 in0.0 mm 0.00 in0.0 mm 0.00 in0.0 mm
02:10 AM 50.4°F10.2°C 44.6°F7.0°C 77% 12.6 mph WSW20.3 kmh WSW 15.4 mph24.8 kmh 29.59 in1002.0 mb 0.00 in0.0 mm 0.00 in0.0 mm 0.00 in0.0 mm
02:15 AM 50.5°F10.3°C 44.6°F7.0°C 77% 13.0 mph WSW20.9 kmh WSW 22.6 mph36.4 kmh 29.59 in1002.0 mb 0.00 in0.0 mm 0.00 in0.0 mm 0.00 in0.0 mm
02:20 AM 50.5°F10.3°C 44.6°F7.0°C 77% 14.2 mph WSW22.9 kmh WSW 22.6 mph36.4 kmh 29.59 in1002.0 mb 0.00 in0.0 mm 0.00 in0.0 mm 0.00 in0.0 mm
02:25 AM 50.7°F10.4°C 44.6°F7.0°C 77% 15.5 mph WSW24.9 kmh WSW 23.7 mph38.1 kmh 29.59 in1002.0 mb 0.00 in0.0 mm 0.00 in0.0 mm 0.00 in0.0 mm
02:30 AM 50.4°F10.2°C 44.6°F7.0°C 77% 14.8 mph W23.8 kmh W 23.7 mph38.1 kmh 29.59 in1002.0 mb 0.00 in0.0 mm 0.00 in0.0 mm 0.00 in0.0 mm
02:35 AM 50.4°F10.2°C 44.6°F7.0°C 77% 10.6 mph W17.1 kmh W 13.0 mph20.9 kmh 29.59 in1002.0 mb 0.00 in0.0 mm 0.00 in0.0 mm 0.00 in0.0 mm
02:40 AM 50.4°F10.2°C 44.6°F7.0°C 77% 10.8 mph WSW17.4 kmh WSW 19.0 mph30.6 kmh 29.59 in1002.0 mb 0.00 in0.0 mm 0.00 in0.0 mm 0.00 in0.0 mm
02:45 AM 50.4°F10.2°C 44.6°F7.0°C 77% 11.7 mph WSW18.8 kmh WSW 19.0 mph30.6 kmh 29.59 in1002.0 mb 0.00 in0.0 mm 0.00 in0.0 mm 0.00 in0.0 mm
02:50 AM 50.4°F10.2°C 44.6°F7.0°C 77% 11.6 mph WSW18.7 kmh WSW 17.7 mph28.5 kmh 29.59 in1002.0 mb 0.00 in0.0 mm 0.00 in0.0 mm 0.00 in0.0 mm
02:55 AM 50.4°F10.2°C 44.6°F7.0°C 77% 11.6 mph WSW18.7 kmh WSW 17.7 mph28.5 kmh 29.59 in1002.0 mb 0.00 in0.0 mm 0.00 in0.0 mm 0.00 in0.0 mm
03:00 AM 50.2°F10.1°C 42.8°F6.0°C 77% 11.8 mph WSW19.0 kmh WSW 17.2 mph27.7 kmh 29.59 in1002.0 mb 0.00 in0.0 mm 0.00 in0.0 mm 0.00 in0.0 mm
03:05 AM 50.2°F10.1°C 42.8°F6.0°C 77% 13.2 mph WSW21.2 kmh WSW 24.6 mph39.6 kmh 29.56 in1001.0 mb 0.00 in0.0 mm 0.00 in0.0 mm 0.00 in0.0 mm
03:10 AM 50.2°F10.1°C 42.8°F6.0°C 76% 13.2 mph W21.2 kmh W 24.6 mph39.6 kmh 29.56 in1001.0 mb 0.00 in0.0 mm 0.00 in0.0 mm 0.00 in0.0 mm
03:15 AM 50.2°F10.1°C 42.8°F6.0°C 76% 12.8 mph W20.6 kmh W 17.7 mph28.5 kmh 29.56 in1001.0 mb 0.00 in0.0 mm 0.00 in0.0 mm 0.00 in0.0 mm
03:20 AM 50.2°F10.1°C 42.8°F6.0°C 76% 11.0 mph WSW17.7 kmh WSW 17.7 mph28.5 kmh 29.56 in1001.0 mb 0.00 in0.0 mm 0.00 in0.0 mm 0.00 in0.0 mm
03:25 AM 50.0°F10.0°C 42.8°F6.0°C 76% 9.7 mph WSW15.6 kmh WSW 16.3 mph26.2 kmh 29.56 in1001.0 mb 0.00 in0.0 mm 0.00 in0.0 mm 0.00 in0.0 mm
03:30 AM 50.0°F10.0°C 42.8°F6.0°C 75% 11.0 mph WSW17.7 kmh WSW 17.2 mph27.7 kmh 29.56 in1001.0 mb 0.00 in0.0 mm 0.00 in0.0 mm 0.00 in0.0 mm
03:35 AM 50.0°F10.0°C 42.8°F6.0°C 75% 9.2 mph WSW14.8 kmh WSW 17.2 mph27.7 kmh 29.56 in1001.0 mb 0.00 in0.0 mm 0.00 in0.0 mm 0.00 in0.0 mm
03:40 AM 50.0°F10.0°C 42.8°F6.0°C 75% 7.7 mph WSW12.4 kmh WSW 15.2 mph24.5 kmh 29.56 in1001.0 mb 0.00 in0.0 mm 0.00 in0.0 mm 0.00 in0.0 mm
03:45 AM 50.0°F10.0°C 42.8°F6.0°C 75% 10.5 mph WSW16.9 kmh WSW 16.8 mph27.0 kmh 29.56 in1001.0 mb 0.00 in0.0 mm 0.00 in0.0 mm 0.00 in0.0 mm
03:50 AM 50.0°F10.0°C 42.8°F6.0°C 75% 11.2 mph WSW18.0 kmh WSW 16.8 mph27.0 kmh 29.56 in1001.0 mb 0.00 in0.0 mm 0.00 in0.0 mm 0.00 in0.0 mm
03:55 AM 49.8°F9.9°C 42.8°F6.0°C 75% 12.2 mph WSW19.6 kmh WSW 24.6 mph39.6 kmh 29.56 in1001.0 mb 0.00 in0.0 mm 0.00 in0.0 mm 0.00 in0.0 mm
04:00 AM 49.8°F9.9°C 42.8°F6.0°C 75% 11.6 mph WSW18.7 kmh WSW 24.6 mph39.6 kmh 29.56 in1001.0 mb 0.00 in0.0 mm 0.00 in0.0 mm 0.00 in0.0 mm
04:05 AM 49.6°F9.8°C 42.8°F6.0°C 76% 8.8 mph WSW14.2 kmh WSW 15.4 mph24.8 kmh 29.56 in1001.0 mb 0.00 in0.0 mm 0.00 in0.0 mm 0.00 in0.0 mm
04:10 AM 49.8°F9.9°C 42.8°F6.0°C 76% 8.5 mph W13.7 kmh W 15.4 mph24.8 kmh 29.56 in1001.0 mb 0.00 in0.0 mm 0.00 in0.0 mm 0.00 in0.0 mm
04:15 AM 49.6°F9.8°C 42.8°F6.0°C 76% 8.2 mph WSW13.2 kmh WSW 13.0 mph20.9 kmh 29.56 in1001.0 mb 0.00 in0.0 mm 0.00 in0.0 mm 0.00 in0.0 mm
04:20 AM 49.8°F9.9°C 42.8°F6.0°C 76% 8.8 mph WSW14.2 kmh WSW 13.0 mph20.9 kmh 29.56 in1001.0 mb 0.00 in0.0 mm 0.00 in0.0 mm 0.00 in0.0 mm
04:25 AM 49.8°F9.9°C 42.8°F6.0°C 76% 8.0 mph W12.9 kmh W 12.5 mph20.1 kmh 29.56 in1001.0 mb 0.00 in0.0 mm 0.00 in0.0 mm 0.00 in0.0 mm
04:30 AM 50.0°F10.0°C 42.8°F6.0°C 76% 7.6 mph WSW12.2 kmh WSW 12.8 mph20.6 kmh 29.56 in1001.0 mb 0.00 in0.0 mm 0.00 in0.0 mm 0.00 in0.0 mm
04:35 AM 50.0°F10.0°C 42.8°F6.0°C 76% 6.9 mph WSW11.1 kmh WSW 12.8 mph20.6 kmh 29.56 in1001.0 mb 0.00 in0.0 mm 0.00 in0.0 mm 0.00 in0.0 mm
04:40 AM 49.8°F9.9°C 42.8°F6.0°C 76% 6.6 mph WSW10.6 kmh WSW 9.8 mph15.8 kmh 29.56 in1001.0 mb 0.00 in0.0 mm 0.00 in0.0 mm 0.00 in0.0 mm
04:45 AM 49.8°F9.9°C 42.8°F6.0°C 76% 6.6 mph WSW10.6 kmh WSW 9.8 mph15.8 kmh 29.56 in1001.0 mb 0.00 in0.0 mm 0.00 in0.0 mm 0.00 in0.0 mm
04:50 AM 49.8°F9.9°C 42.8°F6.0°C 77% 6.1 mph WSW9.8 kmh WSW 10.3 mph16.6 kmh 29.56 in1001.0 mb 0.00 in0.0 mm 0.00 in0.0 mm 0.00 in0.0 mm
04:55 AM 49.8°F9.9°C 42.8°F6.0°C 77% 6.2 mph SW10.0 kmh SW 10.3 mph16.6 kmh 29.56 in1001.0 mb 0.00 in0.0 mm 0.00 in0.0 mm 0.00 in0.0 mm
05:00 AM 50.0°F10.0°C 42.8°F6.0°C 77% 6.8 mph WSW10.9 kmh WSW 8.5 mph13.7 kmh 29.56 in1001.0 mb 0.00 in0.0 mm 0.00 in0.0 mm 0.00 in0.0 mm
05:05 AM 50.0°F10.0°C 42.8°F6.0°C 77% 8.3 mph WSW13.4 kmh WSW 11.0 mph17.7 kmh 29.56 in1001.0 mb 0.00 in0.0 mm 0.00 in0.0 mm 0.00 in0.0 mm
05:10 AM 50.0°F10.0°C 42.8°F6.0°C 77% 9.4 mph WSW15.1 kmh WSW 13.0 mph20.9 kmh 29.56 in1001.0 mb 0.00 in0.0 mm 0.00 in0.0 mm 0.00 in0.0 mm
05:15 AM 50.0°F10.0°C 42.8°F6.0°C 77% 8.3 mph WSW13.4 kmh WSW 13.0 mph20.9 kmh 29.56 in1001.0 mb 0.00 in0.0 mm 0.00 in0.0 mm 0.00 in0.0 mm
05:20 AM 50.0°F10.0°C 42.8°F6.0°C 77% 8.9 mph WSW14.3 kmh WSW 14.5 mph23.3 kmh 29.56 in1001.0 mb 0.00 in0.0 mm 0.00 in0.0 mm 0.00 in0.0 mm
05:25 AM 49.8°F9.9°C 42.8°F6.0°C 77% 8.6 mph WSW13.8 kmh WSW 14.5 mph23.3 kmh 29.56 in1001.0 mb 0.00 in0.0 mm 0.00 in0.0 mm 0.00 in0.0 mm
05:30 AM 49.8°F9.9°C 42.8°F6.0°C 77% 6.4 mph WSW10.3 kmh WSW 10.7 mph17.2 kmh 29.56 in1001.0 mb 0.00 in0.0 mm 0.00 in0.0 mm 0.00 in0.0 mm
05:35 AM 49.8°F9.9°C 42.8°F6.0°C 77% 6.7 mph WSW10.8 kmh WSW 12.5 mph20.1 kmh 29.53 in1000.0 mb 0.00 in0.0 mm 0.00 in0.0 mm 0.00 in0.0 mm
05:40 AM 49.8°F9.9°C 42.8°F6.0°C 77% 5.6 mph WSW9.0 kmh WSW 12.5 mph20.1 kmh 29.53 in1000.0 mb 0.00 in0.0 mm 0.00 in0.0 mm 0.00 in0.0 mm
05:45 AM 49.8°F9.9°C 42.8°F6.0°C 77% 4.7 mph WSW7.6 kmh WSW 7.8 mph12.6 kmh 29.53 in1000.0 mb 0.00 in0.0 mm 0.00 in0.0 mm 0.00 in0.0 mm
05:50 AM 49.8°F9.9°C 42.8°F6.0°C 77% 5.4 mph WSW8.7 kmh WSW 8.1 mph13.0 kmh 29.56 in1001.0 mb 0.00 in0.0 mm 0.00 in0.0 mm 0.00 in0.0 mm
05:55 AM 49.6°F9.8°C 42.8°F6.0°C 77% 5.6 mph WSW9.0 kmh WSW 8.1 mph13.0 kmh 29.56 in1001.0 mb 0.00 in0.0 mm 0.00 in0.0 mm 0.00 in0.0 mm
06:00 AM 49.6°F9.8°C 42.8°F6.0°C 77% 4.1 mph WSW6.6 kmh WSW 7.8 mph12.6 kmh 29.56 in1001.0 mb 0.00 in0.0 mm 0.00 in0.0 mm 0.00 in0.0 mm
06:05 AM 49.6°F9.8°C 42.8°F6.0°C 77% 4.1 mph WSW6.6 kmh WSW 11.0 mph17.7 kmh 29.53 in1000.0 mb 0.00 in0.0 mm 0.00 in0.0 mm 0.00 in0.0 mm
06:10 AM 49.8°F9.9°C 42.8°F6.0°C 77% 5.3 mph WSW8.5 kmh WSW 11.0 mph17.7 kmh 29.53 in1000.0 mb 0.00 in0.0 mm 0.00 in0.0 mm 0.00 in0.0 mm
06:15 AM 49.8°F9.9°C 42.8°F6.0°C 77% 5.6 mph WSW9.0 kmh WSW 8.7 mph14.0 kmh 29.53 in1000.0 mb 0.00 in0.0 mm 0.00 in0.0 mm 0.00 in0.0 mm
06:20 AM 49.8°F9.9°C 42.8°F6.0°C 77% 5.5 mph WSW8.9 kmh WSW 8.7 mph14.0 kmh 29.53 in1000.0 mb 0.00 in0.0 mm 0.00 in0.0 mm 0.00 in0.0 mm
06:25 AM 49.8°F9.9°C 42.8°F6.0°C 77% 5.0 mph WSW8.0 kmh WSW 8.1 mph13.0 kmh 29.53 in1000.0 mb 0.00 in0.0 mm 0.00 in0.0 mm 0.00 in0.0 mm
06:30 AM 49.8°F9.9°C 42.8°F6.0°C 77% 5.5 mph WSW8.9 kmh WSW 8.1 mph13.0 kmh 29.53 in1000.0 mb 0.00 in0.0 mm 0.00 in0.0 mm 0.00 in0.0 mm
06:35 AM 49.8°F9.9°C 42.8°F6.0°C 77% 4.3 mph WSW6.9 kmh WSW 7.6 mph12.2 kmh 29.53 in1000.0 mb 0.00 in0.0 mm 0.00 in0.0 mm 0.00 in0.0 mm
06:40 AM 49.8°F9.9°C 42.8°F6.0°C 77% 4.5 mph WSW7.2 kmh WSW 7.8 mph12.6 kmh 29.53 in1000.0 mb 0.00 in0.0 mm 0.00 in0.0 mm 0.00 in0.0 mm
06:45 AM 49.8°F9.9°C 42.8°F6.0°C 77% 5.3 mph WSW8.5 kmh WSW 7.8 mph12.6 kmh 29.53 in1000.0 mb 0.00 in0.0 mm 0.00 in0.0 mm 0.00 in0.0 mm
06:50 AM 49.8°F9.9°C 42.8°F6.0°C 77% 5.8 mph WSW9.3 kmh WSW 11.0 mph17.7 kmh 29.53 in1000.0 mb 0.00 in0.0 mm 0.00 in0.0 mm 0.00 in0.0 mm
06:55 AM 49.8°F9.9°C 42.8°F6.0°C 77% 5.7 mph WSW9.2 kmh WSW 11.0 mph17.7 kmh 29.53 in1000.0 mb 0.00 in0.0 mm 0.00 in0.0 mm 0.00 in0.0 mm
07:00 AM 49.6°F9.8°C 42.8°F6.0°C 77% 5.7 mph WSW9.2 kmh WSW 10.3 mph16.6 kmh 29.53 in1000.0 mb 0.00 in0.0 mm 0.00 in0.0 mm 0.00 in0.0 mm
07:05 AM 49.6°F9.8°C 42.8°F6.0°C 77% 6.1 mph WSW9.8 kmh WSW 8.7 mph14.0 kmh 29.53 in1000.0 mb 0.00 in0.0 mm 0.00 in0.0 mm 0.00 in0.0 mm
07:10 AM 49.6°F9.8°C 42.8°F6.0°C 77% 6.1 mph WSW9.8 kmh WSW 11.9 mph19.2 kmh 29.53 in1000.0 mb 0.00 in0.0 mm 0.00 in0.0 mm 0.00 in0.0 mm
07:15 AM 49.6°F9.8°C 42.8°F6.0°C 77% 7.0 mph W11.3 kmh W 12.1 mph19.5 kmh 29.53 in1000.0 mb 0.00 in0.0 mm 0.00 in0.0 mm 0.00 in0.0 mm
07:20 AM 49.6°F9.8°C 42.8°F6.0°C 77% 6.6 mph W10.6 kmh W 12.5 mph20.1 kmh 29.53 in1000.0 mb 0.00 in0.0 mm 0.00 in0.0 mm 0.00 in0.0 mm
07:25 AM 49.6°F9.8°C 42.8°F6.0°C 77% 7.0 mph WSW11.3 kmh WSW 15.7 mph25.3 kmh 29.53 in1000.0 mb 0.00 in0.0 mm 0.00 in0.0 mm 0.00 in0.0 mm
07:30 AM 49.6°F9.8°C 42.8°F6.0°C 77% 7.8 mph WSW12.6 kmh WSW 15.7 mph25.3 kmh 29.53 in1000.0 mb 0.00 in0.0 mm 0.00 in0.0 mm 0.00 in0.0 mm
07:35 AM 49.6°F9.8°C 42.8°F6.0°C 77% 8.4 mph WSW13.5 kmh WSW 12.8 mph20.6 kmh 29.53 in1000.0 mb 0.00 in0.0 mm 0.00 in0.0 mm 0.00 in0.0 mm
07:40 AM 49.6°F9.8°C 42.8°F6.0°C 77% 9.2 mph WSW14.8 kmh WSW 13.2 mph21.2 kmh 29.53 in1000.0 mb 0.00 in0.0 mm 0.00 in0.0 mm 0.00 in0.0 mm
07:45 AM 49.6°F9.8°C 42.8°F6.0°C 77% 9.8 mph WSW15.8 kmh WSW 15.4 mph24.8 kmh 29.53 in1000.0 mb 0.00 in0.0 mm 0.00 in0.0 mm 0.00 in0.0 mm
07:50 AM 49.6°F9.8°C 42.8°F6.0°C 77% 8.8 mph WSW14.2 kmh WSW 15.4 mph24.8 kmh 29.53 in1000.0 mb 0.00 in0.0 mm 0.00 in0.0 mm 0.00 in0.0 mm
07:55 AM 49.6°F9.8°C 42.8°F6.0°C 77% 7.4 mph SW11.9 kmh SW 11.0 mph17.7 kmh 29.53 in1000.0 mb 0.00 in0.0 mm 0.00 in0.0 mm 0.00 in0.0 mm
08:00 AM 49.5°F9.7°C 42.8°F6.0°C 77% 7.1 mph WSW11.4 kmh WSW 10.1 mph16.3 kmh 29.53 in1000.0 mb 0.00 in0.0 mm 0.00 in0.0 mm 0.00 in0.0 mm
08:05 AM 49.5°F9.7°C 42.8°F6.0°C 77% 7.2 mph WSW11.6 kmh WSW 8.5 mph13.7 kmh 29.50 in999.0 mb 0.00 in0.0 mm 0.00 in0.0 mm 0.00 in0.0 mm
08:10 AM 49.5°F9.7°C 42.8°F6.0°C 77% 7.0 mph WSW11.3 kmh WSW 8.5 mph13.7 kmh 29.50 in999.0 mb 0.00 in0.0 mm 0.00 in0.0 mm 0.00 in0.0 mm
08:15 AM 49.5°F9.7°C 42.8°F6.0°C 77% 6.1 mph WSW9.8 kmh WSW 8.5 mph13.7 kmh 29.50 in999.0 mb 0.00 in0.0 mm 0.00 in0.0 mm 0.00 in0.0 mm
08:20 AM 49.5°F9.7°C 42.8°F6.0°C 77% 7.7 mph W12.4 kmh W 14.8 mph23.8 kmh 29.50 in999.0 mb 0.00 in0.0 mm 0.00 in0.0 mm 0.00 in0.0 mm
08:25 AM 49.3°F9.6°C 42.8°F6.0°C 77% 5.8 mph W9.3 kmh W 14.8 mph23.8 kmh 29.50 in999.0 mb 0.00 in0.0 mm 0.00 in0.0 mm 0.00 in0.0 mm
08:30 AM 49.1°F9.5°C 42.8°F6.0°C 78% 3.7 mph WSW6.0 kmh WSW 9.8 mph15.8 kmh 29.50 in999.0 mb 0.00 in0.0 mm 0.00 in0.0 mm 0.00 in0.0 mm
08:35 AM 48.9°F9.4°C 42.8°F6.0°C 78% 5.1 mph WSW8.2 kmh WSW 9.8 mph15.8 kmh 29.50 in999.0 mb 0.00 in0.0 mm 0.00 in0.0 mm 0.00 in0.0 mm
08:40 AM 48.9°F9.4°C 42.8°F6.0°C 78% 6.2 mph SW10.0 kmh SW 11.2 mph18.0 kmh 29.50 in999.0 mb 0.00 in0.0 mm 0.00 in0.0 mm 0.00 in0.0 mm
08:45 AM 49.1°F9.5°C 42.8°F6.0°C 78% 6.2 mph WSW10.0 kmh WSW 11.2 mph18.0 kmh 29.50 in999.0 mb 0.00 in0.0 mm 0.00 in0.0 mm 0.00 in0.0 mm
08:50 AM 49.3°F9.6°C 42.8°F6.0°C 78% 6.5 mph WSW10.5 kmh WSW 12.5 mph20.1 kmh 29.50 in999.0 mb 0.00 in0.0 mm 0.00 in0.0 mm 0.00 in0.0 mm
08:55 AM 49.3°F9.6°C 42.8°F6.0°C 78% 6.6 mph WSW10.6 kmh WSW 12.5 mph20.1 kmh 29.50 in999.0 mb 0.00 in0.0 mm 0.00 in0.0 mm 0.00 in0.0 mm
09:00 AM 49.3°F9.6°C 42.8°F6.0°C 78% 7.8 mph WSW12.6 kmh WSW 10.7 mph17.2 kmh 29.50 in999.0 mb 0.00 in0.0 mm 0.00 in0.0 mm 0.00 in0.0 mm
09:05 AM 49.3°F9.6°C 42.8°F6.0°C 78% 9.0 mph WSW14.5 kmh WSW 13.0 mph20.9 kmh 29.50 in999.0 mb 0.00 in0.0 mm 0.00 in0.0 mm 0.00 in0.0 mm
09:10 AM 49.3°F9.6°C 42.8°F6.0°C 78% 7.5 mph WSW12.1 kmh WSW 13.0 mph20.9 kmh 29.50 in999.0 mb 0.00 in0.0 mm 0.00 in0.0 mm 0.00 in0.0 mm
09:15 AM 49.3°F9.6°C 42.8°F6.0°C 78% 7.8 mph WSW12.6 kmh WSW 15.7 mph25.3 kmh 29.50 in999.0 mb 0.00 in0.0 mm 0.00 in0.0 mm 0.00 in0.0 mm
09:20 AM 49.5°F9.7°C 42.8°F6.0°C 78% 9.8 mph WSW15.8 kmh WSW 16.8 mph27.0 kmh 29.47 in998.0 mb 0.00 in0.0 mm 0.00 in0.0 mm 0.00 in0.0 mm
09:25 AM 49.5°F9.7°C 42.8°F6.0°C 78% 10.6 mph WSW17.1 kmh WSW 16.8 mph27.0 kmh 29.47 in998.0 mb 0.00 in0.0 mm 0.00 in0.0 mm 0.00 in0.0 mm
09:30 AM 49.5°F9.7°C 42.8°F6.0°C 78% 9.5 mph WSW15.3 kmh WSW 13.2 mph21.2 kmh 29.47 in998.0 mb 0.00 in0.0 mm 0.00 in0.0 mm 0.00 in0.0 mm
09:35 AM 49.3°F9.6°C 42.8°F6.0°C 78% 8.5 mph WSW13.7 kmh WSW 13.9 mph22.4 kmh 29.47 in998.0 mb 0.00 in0.0 mm 0.00 in0.0 mm 0.00 in0.0 mm
09:40 AM 49.3°F9.6°C 42.8°F6.0°C 78% 8.6 mph WSW13.8 kmh WSW 14.5 mph23.3 kmh 29.47 in998.0 mb 0.00 in0.0 mm 0.00 in0.0 mm 0.00 in0.0 mm
09:45 AM 49.3°F9.6°C 42.8°F6.0°C 78% 9.6 mph WSW15.4 kmh WSW 14.5 mph23.3 kmh 29.47 in998.0 mb 0.00 in0.0 mm 0.00 in0.0 mm 0.00 in0.0 mm
09:50 AM 49.5°F9.7°C 42.8°F6.0°C 78% 10.0 mph W16.1 kmh W 15.2 mph24.5 kmh 29.47 in998.0 mb 0.00 in0.0 mm 0.00 in0.0 mm 0.00 in0.0 mm
09:55 AM 49.3°F9.6°C 42.8°F6.0°C 78% 8.8 mph W14.2 kmh W 15.2 mph24.5 kmh 29.47 in998.0 mb 0.00 in0.0 mm 0.00 in0.0 mm 0.00 in0.0 mm
10:00 AM 49.6°F9.8°C 42.8°F6.0°C 78% 10.7 mph SW17.2 kmh SW 15.7 mph25.3 kmh 29.47 in998.0 mb 0.00 in0.0 mm 0.00 in0.0 mm 0.00 in0.0 mm
10:05 AM 49.6°F9.8°C 42.8°F6.0°C 78% 12.6 mph WSW20.3 kmh WSW 15.7 mph25.3 kmh 29.45 in997.3 mb 0.00 in0.0 mm 0.00 in0.0 mm 0.00 in0.0 mm
10:10 AM 49.8°F9.9°C 42.8°F6.0°C 78% 11.4 mph WSW18.3 kmh WSW 15.7 mph25.3 kmh 29.45 in997.3 mb 0.00 in0.0 mm 0.00 in0.0 mm 0.00 in0.0 mm
10:15 AM 50.0°F10.0°C 42.8°F6.0°C 78% 10.3 mph WSW16.6 kmh WSW 15.2 mph24.5 kmh 29.45 in997.3 mb 0.00 in0.0 mm 0.00 in0.0 mm 0.00 in0.0 mm
10:20 AM 50.0°F10.0°C 42.8°F6.0°C 77% 12.3 mph WSW19.8 kmh WSW 17.7 mph28.5 kmh 29.45 in997.3 mb 0.00 in0.0 mm 0.00 in0.0 mm 0.00 in0.0 mm
10:25 AM 50.0°F10.0°C 42.8°F6.0°C 77% 12.2 mph WSW19.6 kmh WSW 17.7 mph28.5 kmh 29.45 in997.3 mb 0.00 in0.0 mm 0.00 in0.0 mm 0.00 in0.0 mm
10:30 AM 50.2°F10.1°C 42.8°F6.0°C 76% 11.4 mph WSW18.3 kmh WSW 17.2 mph27.7 kmh 29.45 in997.3 mb 0.00 in0.0 mm 0.00 in0.0 mm 0.00 in0.0 mm
10:35 AM 50.2°F10.1°C 42.8°F6.0°C 76% 12.6 mph WSW20.3 kmh WSW 17.2 mph27.7 kmh 29.45 in997.3 mb 0.00 in0.0 mm 0.00 in0.0 mm 0.00 in0.0 mm
10:40 AM 50.4°F10.2°C 42.8°F6.0°C 76% 11.0 mph W17.7 kmh W 14.8 mph23.8 kmh 29.45 in997.3 mb 0.00 in0.0 mm 0.00 in0.0 mm 0.00 in0.0 mm
10:45 AM 50.5°F10.3°C 42.8°F6.0°C 76% 10.3 mph W16.6 kmh W 13.6 mph21.9 kmh 29.45 in997.3 mb 0.00 in0.0 mm 0.00 in0.0 mm 0.00 in0.0 mm
10:50 AM 50.7°F10.4°C 42.8°F6.0°C 76% 10.1 mph W16.3 kmh W 14.3 mph23.0 kmh 29.45 in997.3 mb 0.00 in0.0 mm 0.00 in0.0 mm 0.00 in0.0 mm
10:55 AM 50.9°F10.5°C 44.6°F7.0°C 75% 9.3 mph W15.0 kmh W 14.3 mph23.0 kmh 29.45 in997.3 mb 0.00 in0.0 mm 0.00 in0.0 mm 0.00 in0.0 mm
11:00 AM 51.1°F10.6°C 44.6°F7.0°C 75% 9.1 mph W14.6 kmh W 12.5 mph20.1 kmh 29.45 in997.3 mb 0.00 in0.0 mm 0.00 in0.0 mm 0.00 in0.0 mm
11:05 AM 51.3°F10.7°C 44.6°F7.0°C 75% 10.9 mph W17.5 kmh W 17.4 mph28.0 kmh 29.45 in997.3 mb 0.00 in0.0 mm 0.00 in0.0 mm 0.00 in0.0 mm
11:10 AM 51.4°F10.8°C 42.8°F6.0°C 74% 11.4 mph W18.3 kmh W 17.4 mph28.0 kmh 29.45 in997.3 mb 0.00 in0.0 mm 0.00 in0.0 mm 0.00 in0.0 mm
11:15 AM 51.6°F10.9°C 44.6°F7.0°C 74% 10.7 mph WSW17.2 kmh WSW 16.6 mph26.7 kmh 29.45 in997.3 mb 0.00 in0.0 mm 0.00 in0.0 mm 0.00 in0.0 mm
11:20 AM 51.6°F10.9°C 44.6°F7.0°C 74% 8.8 mph WSW14.2 kmh WSW 16.6 mph26.7 kmh 29.45 in997.3 mb 0.00 in0.0 mm 0.00 in0.0 mm 0.00 in0.0 mm
11:25 AM 51.8°F11.0°C 42.8°F6.0°C 73% 8.8 mph WSW14.2 kmh WSW 13.0 mph20.9 kmh 29.45 in997.3 mb 0.00 in0.0 mm 0.00 in0.0 mm 0.00 in0.0 mm
11:30 AM 52.2°F11.2°C 44.6°F7.0°C 73% 8.3 mph WSW13.4 kmh WSW 13.2 mph21.2 kmh 29.45 in997.3 mb 0.00 in0.0 mm 0.00 in0.0 mm 0.00 in0.0 mm
11:35 AM 52.2°F11.2°C 44.6°F7.0°C 73% 8.3 mph WNW13.4 kmh WNW 17.4 mph28.0 kmh 29.45 in997.3 mb 0.00 in0.0 mm 0.00 in0.0 mm 0.00 in0.0 mm
11:40 AM 52.0°F11.1°C 42.8°F6.0°C 73% 9.2 mph W14.8 kmh W 17.4 mph28.0 kmh 29.45 in997.3 mb 0.00 in0.0 mm 0.00 in0.0 mm 0.00 in0.0 mm
11:45 AM 52.3°F11.3°C 44.6°F7.0°C 72% 8.8 mph W14.2 kmh W 12.8 mph20.6 kmh 29.45 in997.3 mb 0.00 in0.0 mm 0.00 in0.0 mm 0.00 in0.0 mm
11:50 AM 52.2°F11.2°C 44.6°F7.0°C 72% 9.8 mph W15.8 kmh W 12.8 mph20.6 kmh 29.45 in997.3 mb 0.00 in0.0 mm 0.00 in0.0 mm 0.00 in0.0 mm
11:55 AM 52.2°F11.2°C 44.6°F7.0°C 72% 9.8 mph WNW15.8 kmh WNW 12.8 mph20.6 kmh 29.45 in997.3 mb 0.00 in0.0 mm 0.00 in0.0 mm 0.00 in0.0 mm
12:00 PM 52.2°F11.2°C 42.8°F6.0°C 69% 12.1 mph W19.5 kmh W 17.7 mph28.5 kmh 29.45 in997.3 mb 0.00 in0.0 mm 0.00 in0.0 mm 0.00 in0.0 mm
12:05 PM 52.5°F11.4°C 42.8°F6.0°C 68% 13.6 mph W21.9 kmh W 17.7 mph28.5 kmh 29.45 in997.3 mb 0.00 in0.0 mm 0.00 in0.0 mm 0.00 in0.0 mm
12:10 PM 52.5°F11.4°C 41.0°F5.0°C 66% 14.5 mph W23.3 kmh W 19.5 mph31.4 kmh 29.45 in997.3 mb 0.00 in0.0 mm 0.00 in0.0 mm 0.00 in0.0 mm
12:15 PM 52.2°F11.2°C 41.0°F5.0°C 66% 15.5 mph WNW24.9 kmh WNW 19.5 mph31.4 kmh 29.45 in997.3 mb 0.00 in0.0 mm 0.00 in0.0 mm 0.00 in0.0 mm
12:20 PM 52.3°F11.3°C 41.0°F5.0°C 66% 15.1 mph WNW24.3 kmh WNW 21.5 mph34.6 kmh 29.45 in997.3 mb 0.00 in0.0 mm 0.00 in0.0 mm 0.00 in0.0 mm
12:25 PM 52.3°F11.3°C 41.0°F5.0°C 65% 13.6 mph W21.9 kmh W 21.5 mph34.6 kmh 29.45 in997.3 mb 0.00 in0.0 mm 0.00 in0.0 mm 0.00 in0.0 mm
12:30 PM 52.3°F11.3°C 41.0°F5.0°C 65% 11.8 mph W19.0 kmh W 21.5 mph34.6 kmh 29.45 in997.3 mb 0.00 in0.0 mm 0.00 in0.0 mm 0.00 in0.0 mm
12:35 PM 52.2°F11.2°C 41.0°F5.0°C 65% 11.3 mph W18.2 kmh W 17.0 mph27.4 kmh 29.45 in997.3 mb 0.00 in0.0 mm 0.00 in0.0 mm 0.00 in0.0 mm
12:40 PM 52.3°F11.3°C 41.0°F5.0°C 65% 12.5 mph WSW20.1 kmh WSW 23.5 mph37.8 kmh 29.45 in997.3 mb 0.00 in0.0 mm 0.00 in0.0 mm 0.00 in0.0 mm
12:45 PM 52.3°F11.3°C 41.0°F5.0°C 65% 13.9 mph W22.4 kmh W 23.5 mph37.8 kmh 29.45 in997.3 mb 0.00 in0.0 mm 0.00 in0.0 mm 0.00 in0.0 mm
12:50 PM 52.2°F11.2°C 41.0°F5.0°C 64% 13.5 mph W21.7 kmh W 17.4 mph28.0 kmh 29.45 in997.3 mb 0.00 in0.0 mm 0.00 in0.0 mm 0.00 in0.0 mm
12:55 PM 52.0°F11.1°C 41.0°F5.0°C 64% 14.1 mph WSW22.7 kmh WSW 24.4 mph39.3 kmh 29.45 in997.3 mb 0.00 in0.0 mm 0.00 in0.0 mm 0.00 in0.0 mm
01:00 PM 52.5°F11.4°C 41.0°F5.0°C 63% 15.8 mph W25.4 kmh W 24.4 mph39.3 kmh 29.45 in997.3 mb 0.00 in0.0 mm 0.00 in0.0 mm 0.00 in0.0 mm
01:05 PM 53.6°F12.0°C 41.0°F5.0°C 62% 14.2 mph W22.9 kmh W 22.1 mph35.6 kmh 29.41 in995.9 mb 0.00 in0.0 mm 0.00 in0.0 mm 0.00 in0.0 mm
01:10 PM 54.5°F12.5°C 42.8°F6.0°C 62% 13.4 mph WNW21.6 kmh WNW 22.8 mph36.7 kmh 29.41 in995.9 mb 0.00 in0.0 mm 0.00 in0.0 mm 0.00 in0.0 mm
01:15 PM 54.5°F12.5°C 42.8°F6.0°C 60% 15.3 mph W24.6 kmh W 22.8 mph36.7 kmh 29.41 in995.9 mb 0.00 in0.0 mm 0.00 in0.0 mm 0.00 in0.0 mm
01:20 PM 54.3°F12.4°C 41.0°F5.0°C 60% 14.3 mph W23.0 kmh W 26.4 mph42.5 kmh 29.41 in995.9 mb 0.00 in0.0 mm 0.00 in0.0 mm 0.00 in0.0 mm
01:25 PM 53.2°F11.8°C 39.2°F4.0°C 61% 13.2 mph W21.2 kmh W 26.4 mph42.5 kmh 29.41 in995.9 mb 0.00 in0.0 mm 0.00 in0.0 mm 0.00 in0.0 mm
01:30 PM 52.9°F11.6°C 39.2°F4.0°C 61% 14.3 mph W23.0 kmh W 20.8 mph33.5 kmh 29.41 in995.9 mb 0.00 in0.0 mm 0.00 in0.0 mm 0.00 in0.0 mm
01:35 PM 52.7°F11.5°C 39.2°F4.0°C 61% 12.8 mph W20.6 kmh W 17.4 mph28.0 kmh 29.45 in997.3 mb 0.00 in0.0 mm 0.00 in0.0 mm 0.00 in0.0 mm
01:40 PM 52.2°F11.2°C 39.2°F4.0°C 61% 12.2 mph W19.6 kmh W 15.9 mph25.6 kmh 29.45 in997.3 mb 0.00 in0.0 mm 0.00 in0.0 mm 0.00 in0.0 mm
01:45 PM 52.0°F11.1°C 39.2°F4.0°C 62% 11.3 mph W18.2 kmh W 15.9 mph25.6 kmh 29.45 in997.3 mb 0.00 in0.0 mm 0.00 in0.0 mm 0.00 in0.0 mm
01:50 PM 51.8°F11.0°C 39.2°F4.0°C 62% 9.6 mph WSW15.4 kmh WSW 14.1 mph22.7 kmh 29.45 in997.3 mb 0.00 in0.0 mm 0.00 in0.0 mm 0.00 in0.0 mm
01:55 PM 51.4°F10.8°C 39.2°F4.0°C 63% 10.6 mph W17.1 kmh W 15.2 mph24.5 kmh 29.45 in997.3 mb 0.00 in0.0 mm 0.00 in0.0 mm 0.00 in0.0 mm
02:00 PM 51.3°F10.7°C 39.2°F4.0°C 62% 11.7 mph WNW18.8 kmh WNW 15.2 mph24.5 kmh 29.45 in997.3 mb 0.00 in0.0 mm 0.00 in0.0 mm 0.00 in0.0 mm
02:05 PM 50.9°F10.5°C 39.2°F4.0°C 62% 11.7 mph W18.8 kmh W 14.8 mph23.8 kmh 29.45 in997.3 mb 0.00 in0.0 mm 0.00 in0.0 mm 0.00 in0.0 mm
02:10 PM 50.5°F10.3°C 39.2°F4.0°C 63% 11.7 mph W18.8 kmh W 17.2 mph27.7 kmh 29.45 in997.3 mb 0.00 in0.0 mm 0.00 in0.0 mm 0.00 in0.0 mm
02:15 PM 50.5°F10.3°C 39.2°F4.0°C 63% 10.7 mph WSW17.2 kmh WSW 17.2 mph27.7 kmh 29.45 in997.3 mb 0.00 in0.0 mm 0.00 in0.0 mm 0.00 in0.0 mm
02:20 PM 50.4°F10.2°C 39.2°F4.0°C 63% 11.4 mph W18.3 kmh W 17.4 mph28.0 kmh 29.45 in997.3 mb 0.00 in0.0 mm 0.00 in0.0 mm 0.00 in0.0 mm
02:25 PM 50.4°F10.2°C 37.4°F3.0°C 62% 12.9 mph W20.8 kmh W 17.4 mph28.0 kmh 29.45 in997.3 mb 0.00 in0.0 mm 0.00 in0.0 mm 0.00 in0.0 mm
02:30 PM 50.2°F10.1°C 37.4°F3.0°C 62% 13.3 mph W21.4 kmh W 23.7 mph38.1 kmh 29.45 in997.3 mb 0.00 in0.0 mm 0.00 in0.0 mm 0.00 in0.0 mm
02:35 PM 49.8°F9.9°C 37.4°F3.0°C 62% 11.1 mph W17.9 kmh W 23.7 mph38.1 kmh 29.45 in997.3 mb 0.00 in0.0 mm 0.00 in0.0 mm 0.00 in0.0 mm
02:40 PM 49.8°F9.9°C 37.4°F3.0°C 62% 12.0 mph WSW19.3 kmh WSW 24.4 mph39.3 kmh 29.45 in997.3 mb 0.00 in0.0 mm 0.00 in0.0 mm 0.00 in0.0 mm
02:45 PM 49.6°F9.8°C 37.4°F3.0°C 62% 11.8 mph WSW19.0 kmh WSW 24.4 mph39.3 kmh 29.45 in997.3 mb 0.00 in0.0 mm 0.00 in0.0 mm 0.00 in0.0 mm
02:50 PM 49.5°F9.7°C 37.4°F3.0°C 62% 10.2 mph W16.4 kmh W 14.8 mph23.8 kmh 29.45 in997.3 mb 0.00 in0.0 mm 0.00 in0.0 mm 0.00 in0.0 mm
02:55 PM 49.3°F9.6°C 37.4°F3.0°C 62% 11.4 mph W18.3 kmh W 16.8 mph27.0 kmh 29.45 in997.3 mb 0.00 in0.0 mm 0.00 in0.0 mm 0.00 in0.0 mm
03:00 PM 49.5°F9.7°C 37.4°F3.0°C 61% 12.1 mph W19.5 kmh W 18.1 mph29.1 kmh 29.45 in997.3 mb 0.00 in0.0 mm 0.00 in0.0 mm 0.00 in0.0 mm
03:05 PM 49.3°F9.6°C 37.4°F3.0°C 61% 10.3 mph WNW16.6 kmh WNW 18.1 mph29.1 kmh 29.45 in997.3 mb 0.00 in0.0 mm 0.00 in0.0 mm 0.00 in0.0 mm
03:10 PM 48.9°F9.4°C 35.6°F2.0°C 61% 7.7 mph WNW12.4 kmh WNW 10.7 mph17.2 kmh 29.45 in997.3 mb 0.00 in0.0 mm 0.00 in0.0 mm 0.00 in0.0 mm
03:15 PM 49.1°F9.5°C 37.4°F3.0°C 61% 7.8 mph W12.6 kmh W 12.5 mph20.1 kmh 29.45 in997.3 mb 0.00 in0.0 mm 0.00 in0.0 mm 0.00 in0.0 mm
03:20 PM 49.3°F9.6°C 37.4°F3.0°C 61% 8.4 mph WSW13.5 kmh WSW 12.8 mph20.6 kmh 29.45 in997.3 mb 0.00 in0.0 mm 0.00 in0.0 mm 0.00 in0.0 mm
03:25 PM 48.9°F9.4°C 35.6°F2.0°C 61% 10.4 mph W16.7 kmh W 17.0 mph27.4 kmh 29.45 in997.3 mb 0.00 in0.0 mm 0.00 in0.0 mm 0.00 in0.0 mm
03:30 PM 48.6°F9.2°C 35.6°F2.0°C 61% 11.3 mph W18.2 kmh W 17.0 mph27.4 kmh 29.45 in997.3 mb 0.00 in0.0 mm 0.00 in0.0 mm 0.00 in0.0 mm
03:35 PM 48.4°F9.1°C 35.6°F2.0°C 60% 10.0 mph WSW16.1 kmh WSW 14.3 mph23.0 kmh 29.45 in997.3 mb 0.00 in0.0 mm 0.00 in0.0 mm 0.00 in0.0 mm
03:40 PM 47.8°F8.8°C 35.6°F2.0°C 60% 9.9 mph W15.9 kmh W 15.9 mph25.6 kmh 29.45 in997.3 mb 0.00 in0.0 mm 0.00 in0.0 mm 0.00 in0.0 mm
03:45 PM 47.8°F8.8°C 35.6°F2.0°C 61% 11.0 mph W17.7 kmh W 19.9 mph32.0 kmh 29.45 in997.3 mb 0.00 in0.0 mm 0.00 in0.0 mm 0.00 in0.0 mm
03:50 PM 47.7°F8.7°C 35.6°F2.0°C 60% 11.0 mph W17.7 kmh W 19.9 mph32.0 kmh 29.47 in998.0 mb 0.00 in0.0 mm 0.00 in0.0 mm 0.00 in0.0 mm
03:55 PM 47.7°F8.7°C 35.6°F2.0°C 61% 10.4 mph W16.7 kmh W 19.9 mph32.0 kmh 29.47 in998.0 mb 0.00 in0.0 mm 0.00 in0.0 mm 0.00 in0.0 mm
04:00 PM 47.8°F8.8°C 35.6°F2.0°C 61% 9.3 mph W15.0 kmh W 12.5 mph20.1 kmh 29.47 in998.0 mb 0.00 in0.0 mm 0.00 in0.0 mm 0.00 in0.0 mm
04:05 PM 47.7°F8.7°C 35.6°F2.0°C 60% 8.5 mph W13.7 kmh W 12.5 mph20.1 kmh 29.47 in998.0 mb 0.00 in0.0 mm 0.00 in0.0 mm 0.00 in0.0 mm
04:10 PM 47.5°F8.6°C 35.6°F2.0°C 60% 9.2 mph WSW14.8 kmh WSW 12.1 mph19.5 kmh 29.47 in998.0 mb 0.00 in0.0 mm 0.00 in0.0 mm 0.00 in0.0 mm
04:15 PM 47.3°F8.5°C 35.6°F2.0°C 60% 10.1 mph WSW16.3 kmh WSW 15.2 mph24.5 kmh 29.47 in998.0 mb 0.00 in0.0 mm 0.00 in0.0 mm 0.00 in0.0 mm
04:20 PM 46.9°F8.3°C 33.8°F1.0°C 61% 9.4 mph W15.1 kmh W 15.2 mph24.5 kmh 29.45 in997.3 mb 0.00 in0.0 mm 0.00 in0.0 mm 0.00 in0.0 mm
04:25 PM 46.9°F8.3°C 33.8°F1.0°C 61% 9.4 mph W15.1 kmh W 15.4 mph24.8 kmh 29.45 in997.3 mb 0.00 in0.0 mm 0.00 in0.0 mm 0.00 in0.0 mm
04:30 PM 46.9°F8.3°C 33.8°F1.0°C 61% 9.4 mph WSW15.1 kmh WSW 17.0 mph27.4 kmh 29.45 in997.3 mb 0.00 in0.0 mm 0.00 in0.0 mm 0.00 in0.0 mm
04:35 PM 46.4°F8.0°C 33.8°F1.0°C 61% 7.8 mph WSW12.6 kmh WSW 17.0 mph27.4 kmh 29.47 in998.0 mb 0.00 in0.0 mm 0.00 in0.0 mm 0.00 in0.0 mm
04:40 PM 46.4°F8.0°C 33.8°F1.0°C 62% 7.1 mph W11.4 kmh W 11.0 mph17.7 kmh 29.47 in998.0 mb 0.00 in0.0 mm 0.00 in0.0 mm 0.00 in0.0 mm
04:45 PM 46.2°F7.9°C 33.8°F1.0°C 62% 7.0 mph W11.3 kmh W 10.7 mph17.2 kmh 29.47 in998.0 mb 0.00 in0.0 mm 0.00 in0.0 mm 0.00 in0.0 mm
04:50 PM 46.0°F7.8°C 33.8°F1.0°C 62% 7.8 mph W12.6 kmh W 11.0 mph17.7 kmh 29.47 in998.0 mb 0.00 in0.0 mm 0.00 in0.0 mm 0.00 in0.0 mm
04:55 PM 45.9°F7.7°C 33.8°F1.0°C 63% 7.4 mph W11.9 kmh W 11.0 mph17.7 kmh 29.47 in998.0 mb 0.00 in0.0 mm 0.00 in0.0 mm 0.00 in0.0 mm
05:00 PM 46.0°F7.8°C 33.8°F1.0°C 63% 7.5 mph WNW12.1 kmh WNW 11.0 mph17.7 kmh 29.47 in998.0 mb 0.00 in0.0 mm 0.00 in0.0 mm 0.00 in0.0 mm
05:05 PM 46.0°F7.8°C 33.8°F1.0°C 63% 9.1 mph WNW14.6 kmh WNW 13.0 mph20.9 kmh 29.47 in998.0 mb 0.00 in0.0 mm 0.00 in0.0 mm 0.00 in0.0 mm
05:10 PM 46.0°F7.8°C 33.8°F1.0°C 62% 10.1 mph W16.3 kmh W 16.6 mph26.7 kmh 29.47 in998.0 mb 0.00 in0.0 mm 0.00 in0.0 mm 0.00 in0.0 mm
05:15 PM 45.9°F7.7°C 33.8°F1.0°C 63% 9.7 mph W15.6 kmh W 16.6 mph26.7 kmh 29.47 in998.0 mb 0.00 in0.0 mm 0.00 in0.0 mm 0.00 in0.0 mm
05:20 PM 45.7°F7.6°C 33.8°F1.0°C 63% 8.4 mph W13.5 kmh W 12.3 mph19.8 kmh 29.47 in998.0 mb 0.00 in0.0 mm 0.00 in0.0 mm 0.00 in0.0 mm
05:25 PM 45.7°F7.6°C 33.8°F1.0°C 63% 9.5 mph W15.3 kmh W 16.6 mph26.7 kmh 29.47 in998.0 mb 0.00 in0.0 mm 0.00 in0.0 mm 0.00 in0.0 mm
05:30 PM 45.5°F7.5°C 33.8°F1.0°C 63% 9.3 mph WSW15.0 kmh WSW 17.2 mph27.7 kmh 29.47 in998.0 mb 0.00 in0.0 mm 0.00 in0.0 mm 0.00 in0.0 mm
05:35 PM 45.3°F7.4°C 33.8°F1.0°C 63% 8.8 mph W14.2 kmh W 17.2 mph27.7 kmh 29.47 in998.0 mb 0.00 in0.0 mm 0.00 in0.0 mm 0.00 in0.0 mm
05:40 PM 45.5°F7.5°C 33.8°F1.0°C 63% 8.7 mph WNW14.0 kmh WNW 12.5 mph20.1 kmh 29.47 in998.0 mb 0.00 in0.0 mm 0.00 in0.0 mm 0.00 in0.0 mm
05:45 PM 45.3°F7.4°C 33.8°F1.0°C 63% 9.7 mph W15.6 kmh W 13.2 mph21.2 kmh 29.47 in998.0 mb 0.00 in0.0 mm 0.00 in0.0 mm 0.00 in0.0 mm
05:50 PM 45.3°F7.4°C 33.8°F1.0°C 63% 10.2 mph WNW16.4 kmh WNW 13.2 mph21.2 kmh 29.50 in999.0 mb 0.00 in0.0 mm 0.00 in0.0 mm 0.00 in0.0 mm
05:55 PM 45.0°F7.2°C 33.8°F1.0°C 63% 8.6 mph W13.8 kmh W 12.5 mph20.1 kmh 29.50 in999.0 mb 0.00 in0.0 mm 0.00 in0.0 mm 0.00 in0.0 mm
06:00 PM 45.0°F7.2°C 33.8°F1.0°C 64% 8.2 mph W13.2 kmh W 13.2 mph21.2 kmh 29.50 in999.0 mb 0.00 in0.0 mm 0.00 in0.0 mm 0.00 in0.0 mm
06:05 PM 45.0°F7.2°C 33.8°F1.0°C 64% 9.0 mph W14.5 kmh W 13.2 mph21.2 kmh 29.50 in999.0 mb 0.00 in0.0 mm 0.00 in0.0 mm 0.00 in0.0 mm
06:10 PM 44.8°F7.1°C 33.8°F1.0°C 64% 8.2 mph W13.2 kmh W 13.0 mph20.9 kmh 29.50 in999.0 mb 0.00 in0.0 mm 0.00 in0.0 mm 0.00 in0.0 mm
06:15 PM 45.0°F7.2°C 33.8°F1.0°C 64% 8.0 mph WNW12.9 kmh WNW 14.8 mph23.8 kmh 29.50 in999.0 mb 0.00 in0.0 mm 0.00 in0.0 mm 0.00 in0.0 mm
06:20 PM 45.1°F7.3°C 33.8°F1.0°C 64% 8.2 mph WNW13.2 kmh WNW 14.8 mph23.8 kmh 29.50 in999.0 mb 0.00 in0.0 mm 0.00 in0.0 mm 0.00 in0.0 mm
06:25 PM 45.1°F7.3°C 33.8°F1.0°C 64% 8.6 mph W13.8 kmh W 15.4 mph24.8 kmh 29.50 in999.0 mb 0.00 in0.0 mm 0.00 in0.0 mm 0.00 in0.0 mm
06:30 PM 45.0°F7.2°C 33.8°F1.0°C 64% 8.3 mph W13.4 kmh W 15.4 mph24.8 kmh 29.50 in999.0 mb 0.00 in0.0 mm 0.00 in0.0 mm 0.00 in0.0 mm
06:35 PM 45.0°F7.2°C 33.8°F1.0°C 65% 7.0 mph W11.3 kmh W 11.0 mph17.7 kmh 29.50 in999.0 mb 0.00 in0.0 mm 0.00 in0.0 mm 0.00 in0.0 mm
06:40 PM 45.0°F7.2°C 33.8°F1.0°C 65% 7.5 mph W12.1 kmh W 13.0 mph20.9 kmh 29.50 in999.0 mb 0.00 in0.0 mm 0.00 in0.0 mm 0.00 in0.0 mm
06:45 PM 44.8°F7.1°C 33.8°F1.0°C 65% 7.5 mph W12.1 kmh W 13.0 mph20.9 kmh 29.50 in999.0 mb 0.00 in0.0 mm 0.00 in0.0 mm 0.00 in0.0 mm
06:50 PM 44.8°F7.1°C 33.8°F1.0°C 65% 6.0 mph W9.7 kmh W 8.7 mph14.0 kmh 29.50 in999.0 mb 0.00 in0.0 mm 0.00 in0.0 mm 0.00 in0.0 mm
06:55 PM 44.8°F7.1°C 33.8°F1.0°C 65% 6.4 mph WNW10.3 kmh WNW 13.4 mph21.6 kmh 29.50 in999.0 mb 0.00 in0.0 mm 0.00 in0.0 mm 0.00 in0.0 mm
07:00 PM 44.8°F7.1°C 33.8°F1.0°C 65% 8.1 mph W13.0 kmh W 13.4 mph21.6 kmh 29.50 in999.0 mb 0.00 in0.0 mm 0.00 in0.0 mm 0.00 in0.0 mm
07:05 PM 44.8°F7.1°C 33.8°F1.0°C 65% 8.9 mph WSW14.3 kmh WSW 12.3 mph19.8 kmh 29.50 in999.0 mb 0.00 in0.0 mm 0.00 in0.0 mm 0.00 in0.0 mm
07:10 PM 44.8°F7.1°C 33.8°F1.0°C 65% 9.2 mph WSW14.8 kmh WSW 14.8 mph23.8 kmh 29.50 in999.0 mb 0.00 in0.0 mm 0.00 in0.0 mm 0.00 in0.0 mm
07:15 PM 44.8°F7.1°C 33.8°F1.0°C 65% 9.3 mph W15.0 kmh W 14.8 mph23.8 kmh 29.50 in999.0 mb 0.00 in0.0 mm 0.00 in0.0 mm 0.00 in0.0 mm
07:20 PM 44.6°F7.0°C 33.8°F1.0°C 65% 8.4 mph W13.5 kmh W 14.3 mph23.0 kmh 29.50 in999.0 mb 0.00 in0.0 mm 0.00 in0.0 mm 0.00 in0.0 mm
07:25 PM 44.8°F7.1°C 33.8°F1.0°C 65% 8.1 mph W13.0 kmh W 12.5 mph20.1 kmh 29.50 in999.0 mb 0.00 in0.0 mm 0.00 in0.0 mm 0.00 in0.0 mm
07:30 PM 44.6°F7.0°C 33.8°F1.0°C 65% 8.5 mph W13.7 kmh W 11.9 mph19.2 kmh 29.50 in999.0 mb 0.00 in0.0 mm 0.00 in0.0 mm 0.00 in0.0 mm
07:35 PM 44.6°F7.0°C 33.8°F1.0°C 65% 8.4 mph W13.5 kmh W 12.1 mph19.5 kmh 29.53 in1000.0 mb 0.00 in0.0 mm 0.00 in0.0 mm 0.00 in0.0 mm
07:40 PM 44.4°F6.9°C 33.8°F1.0°C 65% 8.4 mph W13.5 kmh W 12.1 mph19.5 kmh 29.53 in1000.0 mb 0.00 in0.0 mm 0.00 in0.0 mm 0.00 in0.0 mm
07:45 PM 44.4°F6.9°C 33.8°F1.0°C 65% 8.1 mph W13.0 kmh W 10.7 mph17.2 kmh 29.53 in1000.0 mb 0.00 in0.0 mm 0.00 in0.0 mm 0.00 in0.0 mm
07:50 PM 44.2°F6.8°C 33.8°F1.0°C 65% 7.0 mph WNW11.3 kmh WNW 10.7 mph17.2 kmh 29.53 in1000.0 mb 0.00 in0.0 mm 0.00 in0.0 mm 0.00 in0.0 mm
07:55 PM 44.4°F6.9°C 33.8°F1.0°C 65% 7.6 mph WNW12.2 kmh WNW 17.9 mph28.8 kmh 29.53 in1000.0 mb 0.00 in0.0 mm 0.00 in0.0 mm 0.00 in0.0 mm
08:00 PM 44.2°F6.8°C 33.8°F1.0°C 64% 8.1 mph W13.0 kmh W 17.9 mph28.8 kmh 29.53 in1000.0 mb 0.00 in0.0 mm 0.00 in0.0 mm 0.00 in0.0 mm
08:05 PM 44.2°F6.8°C 33.8°F1.0°C 65% 6.8 mph W10.9 kmh W 12.1 mph19.5 kmh 29.53 in1000.0 mb 0.00 in0.0 mm 0.00 in0.0 mm 0.00 in0.0 mm
08:10 PM 43.9°F6.6°C 33.8°F1.0°C 64% 5.8 mph WSW9.3 kmh WSW 8.1 mph13.0 kmh 29.53 in1000.0 mb 0.00 in0.0 mm 0.00 in0.0 mm 0.00 in0.0 mm
08:15 PM 43.9°F6.6°C 33.8°F1.0°C 65% 6.4 mph WSW10.3 kmh WSW 8.5 mph13.7 kmh 29.53 in1000.0 mb 0.00 in0.0 mm 0.00 in0.0 mm 0.00 in0.0 mm
08:20 PM 43.9°F6.6°C 33.8°F1.0°C 64% 7.1 mph W11.4 kmh W 13.0 mph20.9 kmh 29.53 in1000.0 mb 0.00 in0.0 mm 0.00 in0.0 mm 0.00 in0.0 mm
08:25 PM 43.9°F6.6°C 33.8°F1.0°C 65% 7.2 mph W11.6 kmh W 13.0 mph20.9 kmh 29.53 in1000.0 mb 0.00 in0.0 mm 0.00 in0.0 mm 0.00 in0.0 mm
08:30 PM 43.7°F6.5°C 33.8°F1.0°C 64% 6.9 mph W11.1 kmh W 11.9 mph19.2 kmh 29.53 in1000.0 mb 0.00 in0.0 mm 0.00 in0.0 mm 0.00 in0.0 mm
08:35 PM 43.5°F6.4°C 33.8°F1.0°C 65% 6.3 mph W10.1 kmh W 11.9 mph19.2 kmh 29.53 in1000.0 mb 0.00 in0.0 mm 0.00 in0.0 mm 0.00 in0.0 mm
08:40 PM 43.5°F6.4°C 33.8°F1.0°C 65% 6.0 mph W9.7 kmh W 9.6 mph15.4 kmh 29.53 in1000.0 mb 0.00 in0.0 mm 0.00 in0.0 mm 0.00 in0.0 mm
08:45 PM 43.3°F6.3°C 33.8°F1.0°C 65% 5.5 mph W8.9 kmh W 9.6 mph15.4 kmh 29.53 in1000.0 mb 0.00 in0.0 mm 0.00 in0.0 mm 0.00 in0.0 mm
08:50 PM 43.2°F6.2°C 33.8°F1.0°C 65% 5.2 mph WNW8.4 kmh WNW 7.8 mph12.6 kmh 29.53 in1000.0 mb 0.00 in0.0 mm 0.00 in0.0 mm 0.00 in0.0 mm
08:55 PM 43.2°F6.2°C 33.8°F1.0°C 65% 5.4 mph NW8.7 kmh NW 6.7 mph10.8 kmh 29.53 in1000.0 mb 0.00 in0.0 mm 0.00 in0.0 mm 0.00 in0.0 mm
09:00 PM 43.3°F6.3°C 33.8°F1.0°C 66% 6.6 mph WNW10.6 kmh WNW 8.7 mph14.0 kmh 29.53 in1000.0 mb 0.00 in0.0 mm 0.00 in0.0 mm 0.00 in0.0 mm
09:05 PM 43.2°F6.2°C 33.8°F1.0°C 66% 7.2 mph W11.6 kmh W 11.0 mph17.7 kmh 29.56 in1001.0 mb 0.00 in0.0 mm 0.00 in0.0 mm 0.00 in0.0 mm
09:10 PM 43.3°F6.3°C 33.8°F1.0°C 66% 7.4 mph WNW11.9 kmh WNW 13.2 mph21.2 kmh 29.56 in1001.0 mb 0.00 in0.0 mm 0.00 in0.0 mm 0.00 in0.0 mm
09:15 PM 43.3°F6.3°C 33.8°F1.0°C 66% 7.2 mph W11.6 kmh W 14.3 mph23.0 kmh 29.56 in1001.0 mb 0.00 in0.0 mm 0.00 in0.0 mm 0.00 in0.0 mm
09:20 PM 43.2°F6.2°C 33.8°F1.0°C 66% 5.8 mph W9.3 kmh W 14.3 mph23.0 kmh 29.56 in1001.0 mb 0.00 in0.0 mm 0.00 in0.0 mm 0.00 in0.0 mm
09:25 PM 43.0°F6.1°C 32.0°F0.0°C 66% 6.5 mph WNW10.5 kmh WNW 11.0 mph17.7 kmh 29.56 in1001.0 mb 0.00 in0.0 mm 0.00 in0.0 mm 0.00 in0.0 mm
09:30 PM 42.8°F6.0°C 32.0°F0.0°C 66% 6.3 mph W10.1 kmh W 11.0 mph17.7 kmh 29.56 in1001.0 mb 0.00 in0.0 mm 0.00 in0.0 mm 0.00 in0.0 mm
09:35 PM 42.8°F6.0°C 32.0°F0.0°C 66% 4.8 mph W7.7 kmh W 7.6 mph12.2 kmh 29.56 in1001.0 mb 0.00 in0.0 mm 0.00 in0.0 mm 0.00 in0.0 mm
09:40 PM 42.8°F6.0°C 32.0°F0.0°C 66% 4.5 mph W7.2 kmh W 7.2 mph11.6 kmh 29.56 in1001.0 mb 0.00 in0.0 mm 0.00 in0.0 mm 0.00 in0.0 mm
09:45 PM 42.8°F6.0°C 32.0°F0.0°C 66% 6.0 mph WSW9.7 kmh WSW 9.2 mph14.8 kmh 29.56 in1001.0 mb 0.00 in0.0 mm 0.00 in0.0 mm 0.00 in0.0 mm
09:50 PM 42.8°F6.0°C 32.0°F0.0°C 66% 7.2 mph WSW11.6 kmh WSW 9.2 mph14.8 kmh 29.56 in1001.0 mb 0.00 in0.0 mm 0.00 in0.0 mm 0.00 in0.0 mm
09:55 PM 42.4°F5.8°C 32.0°F0.0°C 66% 5.4 mph W8.7 kmh W 8.7 mph14.0 kmh 29.56 in1001.0 mb 0.00 in0.0 mm 0.00 in0.0 mm 0.00 in0.0 mm
10:00 PM 42.3°F5.7°C 32.0°F0.0°C 67% 4.3 mph NW6.9 kmh NW 5.8 mph9.3 kmh 29.56 in1001.0 mb 0.00 in0.0 mm 0.00 in0.0 mm 0.00 in0.0 mm
10:05 PM 42.1°F5.6°C 32.0°F0.0°C 67% 4.2 mph NW6.8 kmh NW 5.6 mph9.0 kmh 29.56 in1001.0 mb 0.00 in0.0 mm 0.00 in0.0 mm 0.00 in0.0 mm
10:10 PM 42.1°F5.6°C 32.0°F0.0°C 67% 4.5 mph WNW7.2 kmh WNW 8.1 mph13.0 kmh 29.56 in1001.0 mb 0.00 in0.0 mm 0.00 in0.0 mm 0.00 in0.0 mm
10:15 PM 42.1°F5.6°C 32.0°F0.0°C 67% 4.2 mph NW6.8 kmh NW 8.1 mph13.0 kmh 29.56 in1001.0 mb 0.00 in0.0 mm 0.00 in0.0 mm 0.00 in0.0 mm
10:20 PM 42.1°F5.6°C 32.0°F0.0°C 67% 4.1 mph WNW6.6 kmh WNW 7.4 mph11.9 kmh 29.56 in1001.0 mb 0.00 in0.0 mm 0.00 in0.0 mm 0.00 in0.0 mm
10:25 PM 41.9°F5.5°C 32.0°F0.0°C 67% 4.4 mph W7.1 kmh W 7.4 mph11.9 kmh 29.56 in1001.0 mb 0.00 in0.0 mm 0.00 in0.0 mm 0.00 in0.0 mm
10:30 PM 41.7°F5.4°C 32.0°F0.0°C 67% 4.5 mph W7.2 kmh W 7.6 mph12.2 kmh 29.56 in1001.0 mb 0.00 in0.0 mm 0.00 in0.0 mm 0.00 in0.0 mm
10:35 PM 41.9°F5.5°C 32.0°F0.0°C 67% 4.8 mph W7.7 kmh W 7.6 mph12.2 kmh 29.56 in1001.0 mb 0.00 in0.0 mm 0.00 in0.0 mm 0.00 in0.0 mm
10:40 PM 41.7°F5.4°C 32.0°F0.0°C 68% 4.7 mph W7.6 kmh W 6.0 mph9.7 kmh 29.56 in1001.0 mb 0.00 in0.0 mm 0.00 in0.0 mm 0.00 in0.0 mm
10:45 PM 41.9°F5.5°C 33.8°F1.0°C 68% 4.9 mph W7.9 kmh W 7.6 mph12.2 kmh 29.56 in1001.0 mb 0.00 in0.0 mm 0.00 in0.0 mm 0.00 in0.0 mm
10:50 PM 41.7°F5.4°C 32.0°F0.0°C 68% 4.6 mph W7.4 kmh W 7.6 mph12.2 kmh 29.56 in1001.0 mb 0.00 in0.0 mm 0.00 in0.0 mm 0.00 in0.0 mm
10:55 PM 41.5°F5.3°C 32.0°F0.0°C 68% 4.2 mph W6.8 kmh W 7.6 mph12.2 kmh 29.56 in1001.0 mb 0.00 in0.0 mm 0.00 in0.0 mm 0.00 in0.0 mm
11:00 PM 41.5°F5.3°C 32.0°F0.0°C 68% 4.5 mph W7.2 kmh W 6.5 mph10.5 kmh 29.56 in1001.0 mb 0.00 in0.0 mm 0.00 in0.0 mm 0.00 in0.0 mm
11:05 PM 41.7°F5.4°C 32.0°F0.0°C 68% 5.2 mph W8.4 kmh W 8.1 mph13.0 kmh 29.59 in1002.0 mb 0.00 in0.0 mm 0.00 in0.0 mm 0.00 in0.0 mm
11:10 PM 41.5°F5.3°C 32.0°F0.0°C 68% 5.1 mph WNW8.2 kmh WNW 8.1 mph13.0 kmh 29.59 in1002.0 mb 0.00 in0.0 mm 0.00 in0.0 mm 0.00 in0.0 mm
11:15 PM 41.2°F5.1°C 32.0°F0.0°C 69% 4.3 mph NW6.9 kmh NW 6.5 mph10.5 kmh 29.59 in1002.0 mb 0.00 in0.0 mm 0.00 in0.0 mm 0.00 in0.0 mm
11:20 PM 41.2°F5.1°C 32.0°F0.0°C 69% 3.8 mph W6.1 kmh W 5.4 mph8.7 kmh 29.59 in1002.0 mb 0.00 in0.0 mm 0.00 in0.0 mm 0.00 in0.0 mm
11:25 PM 41.0°F5.0°C 32.0°F0.0°C 69% 4.4 mph W7.1 kmh W 5.8 mph9.3 kmh 29.59 in1002.0 mb 0.00 in0.0 mm 0.00 in0.0 mm 0.00 in0.0 mm
11:30 PM 41.2°F5.1°C 32.0°F0.0°C 69% 4.2 mph W6.8 kmh W 6.0 mph9.7 kmh 29.59 in1002.0 mb 0.00 in0.0 mm 0.00 in0.0 mm 0.00 in0.0 mm
11:35 PM 41.0°F5.0°C 32.0°F0.0°C 69% 3.8 mph NW6.1 kmh NW 6.0 mph9.7 kmh 29.59 in1002.0 mb 0.00 in0.0 mm 0.00 in0.0 mm 0.00 in0.0 mm
11:40 PM 40.6°F4.8°C 30.2°F-1.0°C 69% 3.6 mph NW5.8 kmh NW 8.5 mph13.7 kmh 29.59 in1002.0 mb 0.00 in0.0 mm 0.00 in0.0 mm 0.00 in0.0 mm
11:45 PM 40.5°F4.7°C 32.0°F0.0°C 70% 3.2 mph NW5.1 kmh NW 8.5 mph13.7 kmh 29.59 in1002.0 mb 0.00 in0.0 mm 0.00 in0.0 mm 0.00 in0.0 mm
11:50 PM 40.5°F4.7°C 32.0°F0.0°C 70% 2.5 mph NW4.0 kmh NW 4.7 mph7.6 kmh 29.59 in1002.0 mb 0.00 in0.0 mm 0.00 in0.0 mm 0.00 in0.0 mm
11:55 PM 40.5°F4.7°C 32.0°F0.0°C 70% 2.1 mph WNW3.4 kmh WNW 3.6 mph5.8 kmh 29.59 in1002.0 mb 0.00 in0.0 mm 0.00 in0.0 mm 0.00 in0.0 mm